sensor_id;sensor_type;location;lat;lon;timestamp;pressure;altitude;pressure_sealevel;temperature;humidity
43125;BME280;49182;50.788;7.318;2023-02-28T00:01:12;102179.56;;;-3.26;85.60
43125;BME280;49182;50.788;7.318;2023-02-28T00:03:38;102181.34;;;-3.32;85.96
43125;BME280;49182;50.788;7.318;2023-02-28T00:06:06;102177.91;;;-3.36;86.26
43125;BME280;49182;50.788;7.318;2023-02-28T00:08:33;102182.22;;;-3.35;86.55
43125;BME280;49182;50.788;7.318;2023-02-28T00:11:01;102178.78;;;-3.35;86.73
43125;BME280;49182;50.788;7.318;2023-02-28T00:13:29;102188.25;;;-3.39;86.77
43125;BME280;49182;50.788;7.318;2023-02-28T00:16:00;102180.53;;;-3.42;86.73
43125;BME280;49182;50.788;7.318;2023-02-28T00:18:27;102185.69;;;-3.43;86.52
43125;BME280;49182;50.788;7.318;2023-02-28T00:20:57;102184.84;;;-3.42;86.73
43125;BME280;49182;50.788;7.318;2023-02-28T00:23:23;102176.16;;;-3.29;87.15
43125;BME280;49182;50.788;7.318;2023-02-28T00:25:50;102158.19;;;-3.46;87.96
43125;BME280;49182;50.788;7.318;2023-02-28T00:28:17;102141.88;;;-3.55;87.94
43125;BME280;49182;50.788;7.318;2023-02-28T00:30:45;102191.69;;;-3.34;88.03
43125;BME280;49182;50.788;7.318;2023-02-28T00:33:12;102183.09;;;-3.36;88.04
43125;BME280;49182;50.788;7.318;2023-02-28T00:35:39;102178.78;;;-3.34;88.27
43125;BME280;49182;50.788;7.318;2023-02-28T00:38:08;102190.75;;;-3.25;88.68
43125;BME280;49182;50.788;7.318;2023-02-28T00:40:35;102189.06;;;-3.28;88.48
43125;BME280;49182;50.788;7.318;2023-02-28T00:43:02;102181.41;;;-3.40;89.00
43125;BME280;49182;50.788;7.318;2023-02-28T00:45:28;102187.41;;;-3.41;89.27
43125;BME280;49182;50.788;7.318;2023-02-28T00:47:57;102191.72;;;-3.44;88.78
43125;BME280;49182;50.788;7.318;2023-02-28T00:50:24;102174.56;;;-3.54;88.66
43125;BME280;49182;50.788;7.318;2023-02-28T00:52:51;102182.31;;;-3.56;88.89
43125;BME280;49182;50.788;7.318;2023-02-28T00:55:19;102172.88;;;-3.61;88.68
43125;BME280;49182;50.788;7.318;2023-02-28T00:57:47;102150.56;;;-3.73;89.15
43125;BME280;49182;50.788;7.318;2023-02-28T01:00:14;102181.44;;;-3.53;89.10
43125;BME280;49182;50.788;7.318;2023-02-28T01:02:42;102193.50;;;-3.57;88.63
43125;BME280;49182;50.788;7.318;2023-02-28T01:05:10;102190.91;;;-3.54;87.98
43125;BME280;49182;50.788;7.318;2023-02-28T01:07:36;102199.53;;;-3.56;87.55
43125;BME280;49182;50.788;7.318;2023-02-28T01:10:04;102166.09;;;-3.84;88.06
43125;BME280;49182;50.788;7.318;2023-02-28T01:12:30;102189.25;;;-3.69;88.14
43125;BME280;49182;50.788;7.318;2023-02-28T01:14:57;102194.44;;;-3.72;88.27
43125;BME280;49182;50.788;7.318;2023-02-28T01:17:23;102154.06;;;-3.94;88.37
43125;BME280;49182;50.788;7.318;2023-02-28T01:19:53;102194.47;;;-3.78;88.54
43125;BME280;49182;50.788;7.318;2023-02-28T01:22:21;102191.00;;;-3.81;88.68
43125;BME280;49182;50.788;7.318;2023-02-28T01:24:47;102154.13;;;-4.09;89.00
43125;BME280;49182;50.788;7.318;2023-02-28T01:27:14;102188.44;;;-3.87;89.31
43125;BME280;49182;50.788;7.318;2023-02-28T01:29:41;102183.28;;;-3.84;89.14
43125;BME280;49182;50.788;7.318;2023-02-28T01:32:08;102184.16;;;-3.87;88.96
43125;BME280;49182;50.788;7.318;2023-02-28T01:34:35;102182.44;;;-3.92;89.22
43125;BME280;49182;50.788;7.318;2023-02-28T01:37:03;102188.47;;;-3.93;88.95
43125;BME280;49182;50.788;7.318;2023-02-28T01:39:30;102179.03;;;-3.96;89.26
43125;BME280;49182;50.788;7.318;2023-02-28T01:41:57;102145.56;;;-4.22;89.28
43125;BME280;49182;50.788;7.318;2023-02-28T01:44:55;102182.47;;;-4.04;89.64
43125;BME280;49182;50.788;7.318;2023-02-28T01:47:25;102173.88;;;-4.03;89.70
43125;BME280;49182;50.788;7.318;2023-02-28T01:49:55;102173.00;;;-4.01;89.52
43125;BME280;49182;50.788;7.318;2023-02-28T01:52:22;102167.00;;;-4.06;89.73
43125;BME280;49182;50.788;7.318;2023-02-28T01:54:52;102158.47;;;-4.22;89.82
43125;BME280;49182;50.788;7.318;2023-02-28T01:57:22;102164.44;;;-4.11;90.13
43125;BME280;49182;50.788;7.318;2023-02-28T01:59:53;102169.59;;;-4.12;90.05
43125;BME280;49182;50.788;7.318;2023-02-28T02:02:23;102166.19;;;-4.16;89.96
43125;BME280;49182;50.788;7.318;2023-02-28T02:04:54;102144.69;;;-4.19;89.80
43125;BME280;49182;50.788;7.318;2023-02-28T02:07:21;102149.00;;;-4.21;90.23
43125;BME280;49182;50.788;7.318;2023-02-28T02:09:59;102161.88;;;-4.24;90.28
43125;BME280;49182;50.788;7.318;2023-02-28T02:12:35;102157.63;;;-4.28;90.23
43125;BME280;49182;50.788;7.318;2023-02-28T02:15:08;102109.53;;;-4.54;90.04
43125;BME280;49182;50.788;7.318;2023-02-28T02:17:40;102143.88;;;-4.42;90.78
43125;BME280;49182;50.788;7.318;2023-02-28T02:26:40;102150.72;;;-4.29;91.42
43125;BME280;49182;50.788;7.318;2023-02-28T02:29:36;102138.72;;;-4.39;91.35
43125;BME280;49182;50.788;7.318;2023-02-28T02:35:07;102151.59;;;-4.30;91.47
43125;BME280;49182;50.788;7.318;2023-02-28T02:37:40;102156.75;;;-4.32;91.67
43125;BME280;49182;50.788;7.318;2023-02-28T02:40:13;102133.56;;;-4.44;91.84
43125;BME280;49182;50.788;7.318;2023-02-28T02:42:45;102150.75;;;-4.28;91.88
43125;BME280;49182;50.788;7.318;2023-02-28T02:45:18;102150.75;;;-4.32;92.10
43125;BME280;49182;50.788;7.318;2023-02-28T02:47:46;102149.00;;;-4.30;91.96
43125;BME280;49182;50.788;7.318;2023-02-28T02:50:19;102146.47;;;-4.41;91.84
43125;BME280;49182;50.788;7.318;2023-02-28T02:52:51;102155.91;;;-4.38;91.78
43125;BME280;49182;50.788;7.318;2023-02-28T02:55:20;102149.00;;;-4.38;91.33
43125;BME280;49182;50.788;7.318;2023-02-28T02:57:51;102146.47;;;-4.39;91.64
43125;BME280;49182;50.788;7.318;2023-02-28T03:00:23;102159.31;;;-4.32;91.72
43125;BME280;49182;50.788;7.318;2023-02-28T03:02:52;102163.66;;;-4.38;91.96
43125;BME280;49182;50.788;7.318;2023-02-28T03:05:25;102157.63;;;-4.37;91.91
43125;BME280;49182;50.788;7.318;2023-02-28T03:07:52;102136.16;;;-4.42;92.13
43125;BME280;49182;50.788;7.318;2023-02-28T03:10:27;102157.63;;;-4.42;92.11
43125;BME280;49182;50.788;7.318;2023-02-28T03:13:07;102162.78;;;-4.43;92.55
43125;BME280;49182;50.788;7.318;2023-02-28T03:15:43;102156.75;;;-4.44;92.36
43125;BME280;49182;50.788;7.318;2023-02-28T03:18:24;102153.31;;;-4.43;92.39
43125;BME280;49182;50.788;7.318;2023-02-28T03:20:59;102147.31;;;-4.43;92.34
43125;BME280;49182;50.788;7.318;2023-02-28T03:23:37;102146.47;;;-4.45;92.55
43125;BME280;49182;50.788;7.318;2023-02-28T03:26:12;102149.91;;;-4.42;91.90
43125;BME280;49182;50.788;7.318;2023-02-28T03:28:43;102094.13;;;-4.82;91.71
43125;BME280;49182;50.788;7.318;2023-02-28T03:31:16;102143.91;;;-4.55;91.82
43125;BME280;49182;50.788;7.318;2023-02-28T03:33:47;102152.47;;;-4.56;91.80
43125;BME280;49182;50.788;7.318;2023-02-28T03:36:20;102143.06;;;-4.58;92.01
43125;BME280;49182;50.788;7.318;2023-02-28T03:38:52;102089.84;;;-4.96;92.03
43125;BME280;49182;50.788;7.318;2023-02-28T03:41:22;102145.59;;;-4.55;91.96
43125;BME280;49182;50.788;7.318;2023-02-28T03:43:56;102144.75;;;-4.48;92.14
43125;BME280;49182;50.788;7.318;2023-02-28T03:46:27;102142.19;;;-4.51;92.09
43125;BME280;49182;50.788;7.318;2023-02-28T03:48:57;102142.16;;;-4.50;91.88
43125;BME280;49182;50.788;7.318;2023-02-28T03:51:29;102091.56;;;-4.88;91.88
43125;BME280;49182;50.788;7.318;2023-02-28T03:53:59;102149.91;;;-4.59;91.93
43125;BME280;49182;50.788;7.318;2023-02-28T03:56:32;102149.03;;;-4.50;92.07
43125;BME280;49182;50.788;7.318;2023-02-28T03:59:02;102150.78;;;-4.44;92.31
43125;BME280;49182;50.788;7.318;2023-02-28T04:01:33;102098.41;;;-4.71;92.11
43125;BME280;49182;50.788;7.318;2023-02-28T04:04:02;102154.19;;;-4.42;92.76
43125;BME280;49182;50.788;7.318;2023-02-28T04:06:33;102146.44;;;-4.44;92.82
43125;BME280;49182;50.788;7.318;2023-02-28T04:09:01;102149.91;;;-4.46;92.88
43125;BME280;49182;50.788;7.318;2023-02-28T04:11:32;102129.31;;;-4.60;92.75
43125;BME280;49182;50.788;7.318;2023-02-28T04:14:00;102109.56;;;-4.73;92.78
43125;BME280;49182;50.788;7.318;2023-02-28T04:16:26;102154.22;;;-4.52;92.71
43125;BME280;49182;50.788;7.318;2023-02-28T04:19:01;102152.47;;;-4.56;92.49
43125;BME280;49182;50.788;7.318;2023-02-28T04:21:29;102033.19;;;-5.31;92.19
43125;BME280;49182;50.788;7.318;2023-02-28T04:23:58;102156.78;;;-4.56;92.40
43125;BME280;49182;50.788;7.318;2023-02-28T04:26:24;102159.34;;;-4.56;92.52
43125;BME280;49182;50.788;7.318;2023-02-28T04:28:51;102120.72;;;-4.83;92.34
43125;BME280;49182;50.788;7.318;2023-02-28T04:31:17;102161.09;;;-4.66;92.09
43125;BME280;49182;50.788;7.318;2023-02-28T04:33:44;102154.22;;;-4.76;91.58
43125;BME280;49182;50.788;7.318;2023-02-28T04:36:10;102162.81;;;-4.72;91.62
43125;BME280;49182;50.788;7.318;2023-02-28T04:38:38;102123.31;;;-4.91;91.21
43125;BME280;49182;50.788;7.318;2023-02-28T04:41:06;102169.66;;;-4.74;91.23
43125;BME280;49182;50.788;7.318;2023-02-28T04:43:33;102167.09;;;-4.77;91.04
43125;BME280;49182;50.788;7.318;2023-02-28T04:46:02;102166.25;;;-4.78;90.86
43125;BME280;49182;50.788;7.318;2023-02-28T04:48:31;102141.34;;;-4.90;91.29
43125;BME280;49182;50.788;7.318;2023-02-28T04:50:59;102165.41;;;-4.75;91.26
43125;BME280;49182;50.788;7.318;2023-02-28T04:53:27;102154.19;;;-4.80;91.31
43125;BME280;49182;50.788;7.318;2023-02-28T04:55:54;102169.69;;;-4.82;90.96
43125;BME280;49182;50.788;7.318;2023-02-28T04:58:22;102169.66;;;-4.86;91.18
43125;BME280;49182;50.788;7.318;2023-02-28T05:00:49;102167.09;;;-4.91;91.31
43125;BME280;49182;50.788;7.318;2023-02-28T05:03:16;102167.09;;;-4.94;91.26
43125;BME280;49182;50.788;7.318;2023-02-28T05:05:42;102176.53;;;-4.96;91.75
43125;BME280;49182;50.788;7.318;2023-02-28T05:08:09;102160.22;;;-5.03;91.88
43125;BME280;49182;50.788;7.318;2023-02-28T05:10:35;102179.09;;;-5.01;91.63
43125;BME280;49182;50.788;7.318;2023-02-28T05:13:02;102175.66;;;-5.03;91.32
43125;BME280;49182;50.788;7.318;2023-02-28T05:15:30;102183.41;;;-5.01;91.65
43125;BME280;49182;50.788;7.318;2023-02-28T05:17:57;102177.38;;;-5.03;91.94
43125;BME280;49182;50.788;7.318;2023-02-28T05:20:23;102179.97;;;-5.06;91.97
43125;BME280;49182;50.788;7.318;2023-02-28T05:22:50;102184.22;;;-5.04;91.94
43125;BME280;49182;50.788;7.318;2023-02-28T05:25:20;102179.09;;;-5.02;91.78
43125;BME280;49182;50.788;7.318;2023-02-28T05:27:53;102185.97;;;-5.01;92.18
43125;BME280;49182;50.788;7.318;2023-02-28T05:30:20;102184.25;;;-5.01;92.21
43125;BME280;49182;50.788;7.318;2023-02-28T05:32:50;102121.56;;;-5.27;92.10
43125;BME280;49182;50.788;7.318;2023-02-28T05:35:17;102013.41;;;-6.06;92.27
43125;BME280;49182;50.788;7.318;2023-02-28T05:37:43;102180.81;;;-5.07;92.45
43125;BME280;49182;50.788;7.318;2023-02-28T05:40:11;102176.50;;;-5.14;92.40
43125;BME280;49182;50.788;7.318;2023-02-28T05:42:38;102182.50;;;-5.14;92.09
43125;BME280;49182;50.788;7.318;2023-02-28T05:45:05;102144.69;;;-5.36;91.75
43125;BME280;49182;50.788;7.318;2023-02-28T05:47:32;102190.22;;;-5.17;91.81
43125;BME280;49182;50.788;7.318;2023-02-28T05:50:00;102173.03;;;-5.25;92.00
43125;BME280;49182;50.788;7.318;2023-02-28T05:52:27;102191.03;;;-5.24;91.49
43125;BME280;49182;50.788;7.318;2023-02-28T05:54:54;102187.63;;;-5.27;91.68
43125;BME280;49182;50.788;7.318;2023-02-28T05:57:21;102165.25;;;-5.42;91.21
43125;BME280;49182;50.788;7.318;2023-02-28T05:59:50;102188.44;;;-5.35;91.28
43125;BME280;49182;50.788;7.318;2023-02-28T06:02:17;102167.81;;;-5.51;91.28
43125;BME280;49182;50.788;7.318;2023-02-28T06:04:44;102007.25;;;-6.49;90.71
43125;BME280;49182;50.788;7.318;2023-02-28T06:07:12;102191.00;;;-5.44;90.90
43125;BME280;49182;50.788;7.318;2023-02-28T06:09:39;102186.72;;;-5.40;91.18
43125;BME280;49182;50.788;7.318;2023-02-28T06:12:06;102186.72;;;-5.36;91.32
43125;BME280;49182;50.788;7.318;2023-02-28T06:14:33;102118.03;;;-5.75;91.02
43125;BME280;49182;50.788;7.318;2023-02-28T06:17:01;102188.44;;;-5.41;90.89
43125;BME280;49182;50.788;7.318;2023-02-28T06:19:28;102191.00;;;-5.42;91.15
43125;BME280;49182;50.788;7.318;2023-02-28T06:21:56;102194.44;;;-5.40;91.28
43125;BME280;49182;50.788;7.318;2023-02-28T06:24:25;102178.97;;;-5.48;91.28
43125;BME280;49182;50.788;7.318;2023-02-28T06:26:52;102184.09;;;-5.55;91.22
43125;BME280;49182;50.788;7.318;2023-02-28T06:29:19;102195.28;;;-5.43;91.89
43125;BME280;49182;50.788;7.318;2023-02-28T06:31:46;102194.44;;;-5.42;92.08
43125;BME280;49182;50.788;7.318;2023-02-28T06:34:14;102200.44;;;-5.41;92.07
43125;BME280;49182;50.788;7.318;2023-02-28T06:36:41;102153.16;;;-5.75;92.15
43125;BME280;49182;50.788;7.318;2023-02-28T06:39:09;102204.72;;;-5.42;92.02
43125;BME280;49182;50.788;7.318;2023-02-28T06:41:37;102203.88;;;-5.39;91.92
43125;BME280;49182;50.788;7.318;2023-02-28T06:44:19;102217.63;;;-5.39;92.07
43125;BME280;49182;50.788;7.318;2023-02-28T06:46:46;102203.88;;;-5.44;91.80
43125;BME280;49182;50.788;7.318;2023-02-28T06:49:13;102220.19;;;-5.36;92.00
43125;BME280;49182;50.788;7.318;2023-02-28T06:51:41;102201.28;;;-5.42;91.91
43125;BME280;49182;50.788;7.318;2023-02-28T06:54:08;102223.63;;;-5.34;92.18
43125;BME280;49182;50.788;7.318;2023-02-28T06:56:36;102227.94;;;-5.30;92.09
43125;BME280;49182;50.788;7.318;2023-02-28T06:59:03;102224.50;;;-5.27;91.92
43125;BME280;49182;50.788;7.318;2023-02-28T07:01:30;102226.22;;;-5.24;91.82
43125;BME280;49182;50.788;7.318;2023-02-28T07:03:58;102236.56;;;-5.18;91.81
43125;BME280;49182;50.788;7.318;2023-02-28T07:06:24;102234.00;;;-5.18;91.61
43125;BME280;49182;50.788;7.318;2023-02-28T07:08:52;102235.72;;;-5.19;91.86
43125;BME280;49182;50.788;7.318;2023-02-28T07:11:19;102238.28;;;-5.16;91.75
43125;BME280;49182;50.788;7.318;2023-02-28T07:13:48;102238.28;;;-5.14;91.81
43125;BME280;49182;50.788;7.318;2023-02-28T07:16:14;102238.31;;;-5.08;91.68
43125;BME280;49182;50.788;7.318;2023-02-28T07:18:41;102193.63;;;-5.25;91.45
43125;BME280;49182;50.788;7.318;2023-02-28T07:21:09;102242.63;;;-4.92;91.61
43125;BME280;49182;50.788;7.318;2023-02-28T07:23:38;102194.53;;;-5.08;91.46
43125;BME280;49182;50.788;7.318;2023-02-28T07:26:05;102240.09;;;-4.75;91.37
43125;BME280;49182;50.788;7.318;2023-02-28T07:28:32;102234.94;;;-4.69;91.60
43125;BME280;49182;50.788;7.318;2023-02-28T07:31:04;102226.34;;;-4.62;91.76
43125;BME280;49182;50.788;7.318;2023-02-28T07:33:31;102237.53;;;-4.46;92.29
43125;BME280;49182;50.788;7.318;2023-02-28T07:36:00;102239.25;;;-4.35;92.41
43125;BME280;49182;50.788;7.318;2023-02-28T07:38:27;102234.94;;;-4.25;92.54
43125;BME280;49182;50.788;7.318;2023-02-28T07:40:54;102231.50;;;-4.18;92.51
43125;BME280;49182;50.788;7.318;2023-02-28T07:43:20;102230.63;;;-4.07;91.83
43125;BME280;49182;50.788;7.318;2023-02-28T07:45:47;102235.75;;;-3.91;90.73
43125;BME280;49182;50.788;7.318;2023-02-28T07:48:15;102214.25;;;-3.86;89.75
43125;BME280;49182;50.788;7.318;2023-02-28T07:50:42;102227.94;;;-3.59;88.42
43125;BME280;49182;50.788;7.318;2023-02-28T07:53:08;102237.34;;;-3.48;87.33
43125;BME280;49182;50.788;7.318;2023-02-28T07:55:35;102195.25;;;-3.59;85.43
43125;BME280;49182;50.788;7.318;2023-02-28T07:58:02;102240.66;;;-3.20;84.21
43125;BME280;49182;50.788;7.318;2023-02-28T08:00:28;102241.50;;;-3.09;84.03
43125;BME280;49182;50.788;7.318;2023-02-28T08:02:55;102232.03;;;-3.13;83.66
43125;BME280;49182;50.788;7.318;2023-02-28T08:05:23;102250.81;;;-2.88;81.58
43125;BME280;49182;50.788;7.318;2023-02-28T08:07:50;102207.06;;;-3.14;81.71
43125;BME280;49182;50.788;7.318;2023-02-28T08:10:17;102249.94;;;-2.82;81.61
43125;BME280;49182;50.788;7.318;2023-02-28T08:12:43;102250.75;;;-2.76;82.43
43125;BME280;49182;50.788;7.318;2023-02-28T08:15:10;102232.69;;;-2.82;82.57
43125;BME280;49182;50.788;7.318;2023-02-28T08:17:37;102240.31;;;-2.59;82.02
43125;BME280;49182;50.788;7.318;2023-02-28T08:20:04;102239.28;;;-2.37;80.41
43125;BME280;49182;50.788;7.318;2023-02-28T08:22:32;102236.53;;;-2.19;79.16
43125;BME280;49182;50.788;7.318;2023-02-28T08:24:59;102233.84;;;-2.08;78.80
43125;BME280;49182;50.788;7.318;2023-02-28T08:27:26;102200.19;;;-2.07;77.82
43125;BME280;49182;50.788;7.318;2023-02-28T08:29:53;102221.44;;;-1.79;76.71
43125;BME280;49182;50.788;7.318;2023-02-28T08:32:20;102238.50;;;-1.58;76.99
43125;BME280;49182;50.788;7.318;2023-02-28T08:34:56;102220.34;;;-1.55;75.14
43125;BME280;49182;50.788;7.318;2023-02-28T08:37:22;102233.88;;;-1.35;73.51
43125;BME280;49182;50.788;7.318;2023-02-28T08:39:51;102233.78;;;-1.24;72.87
43125;BME280;49182;50.788;7.318;2023-02-28T08:42:22;102234.34;;;-1.04;71.66
43125;BME280;49182;50.788;7.318;2023-02-28T08:44:48;102229.91;;;-0.94;71.52
43125;BME280;49182;50.788;7.318;2023-02-28T08:47:15;102223.59;;;-0.78;71.56
43125;BME280;49182;50.788;7.318;2023-02-28T08:49:42;102226.88;;;-0.67;71.04
43125;BME280;49182;50.788;7.318;2023-02-28T08:52:08;102199.16;;;-0.62;67.78
43125;BME280;49182;50.788;7.318;2023-02-28T08:54:35;102202.28;;;-0.42;66.12
43125;BME280;49182;50.788;7.318;2023-02-28T08:57:04;102154.81;;;-0.47;65.15
43125;BME280;49182;50.788;7.318;2023-02-28T08:59:30;102229.94;;;0.10;65.02
43125;BME280;49182;50.788;7.318;2023-02-28T09:01:57;102203.72;;;0.22;60.40
43125;BME280;49182;50.788;7.318;2023-02-28T09:04:24;102226.63;;;0.47;61.03
43125;BME280;49182;50.788;7.318;2023-02-28T09:06:51;102219.28;;;0.67;57.77
43125;BME280;49182;50.788;7.318;2023-02-28T09:09:17;102215.34;;;0.88;56.60
43125;BME280;49182;50.788;7.318;2023-02-28T09:11:44;102219.47;;;0.98;57.30
43125;BME280;49182;50.788;7.318;2023-02-28T09:14:12;102223.13;;;1.28;53.66
43125;BME280;49182;50.788;7.318;2023-02-28T09:16:38;102206.22;;;1.45;56.79
43125;BME280;49182;50.788;7.318;2023-02-28T09:19:05;102208.25;;;1.68;56.74
43125;BME280;49182;50.788;7.318;2023-02-28T09:21:32;102211.06;;;1.93;53.69
43125;BME280;49182;50.788;7.318;2023-02-28T09:23:59;102211.72;;;2.02;49.91
43125;BME280;49182;50.788;7.318;2023-02-28T09:26:27;102217.81;;;2.01;49.85
43125;BME280;49182;50.788;7.318;2023-02-28T09:29:07;102211.47;;;2.10;50.57
43125;BME280;49182;50.788;7.318;2023-02-28T09:31:36;102203.56;;;2.15;50.16
43125;BME280;49182;50.788;7.318;2023-02-28T09:34:03;102208.44;;;2.27;47.54
43125;BME280;49182;50.788;7.318;2023-02-28T09:36:30;102207.28;;;2.37;47.50
43125;BME280;49182;50.788;7.318;2023-02-28T09:39:12;102206.25;;;2.42;47.01
43125;BME280;49182;50.788;7.318;2023-02-28T09:41:41;102201.72;;;2.49;47.18
43125;BME280;49182;50.788;7.318;2023-02-28T09:44:15;102205.59;;;2.65;46.49
43125;BME280;49182;50.788;7.318;2023-02-28T09:46:50;102206.22;;;2.73;45.76
43125;BME280;49182;50.788;7.318;2023-02-28T09:49:20;102203.34;;;2.82;45.54
43125;BME280;49182;50.788;7.318;2023-02-28T09:51:52;102173.28;;;2.71;45.94
43125;BME280;49182;50.788;7.318;2023-02-28T09:54:23;102163.59;;;2.74;46.69
43125;BME280;49182;50.788;7.318;2023-02-28T09:56:52;102192.44;;;2.98;47.04
43125;BME280;49182;50.788;7.318;2023-02-28T09:59:32;102144.41;;;2.77;47.22
43125;BME280;49182;50.788;7.318;2023-02-28T10:02:13;102188.97;;;3.25;46.49
43125;BME280;49182;50.788;7.318;2023-02-28T10:04:47;102189.31;;;3.41;43.41
43125;BME280;49182;50.788;7.318;2023-02-28T10:07:28;102188.03;;;3.54;43.34
43125;BME280;49182;50.788;7.318;2023-02-28T10:10:02;102197.56;;;3.55;44.42
43125;BME280;49182;50.788;7.318;2023-02-28T10:12:31;102184.16;;;3.65;42.16
43125;BME280;49182;50.788;7.318;2023-02-28T10:14:59;102189.44;;;3.64;43.03
43125;BME280;49182;50.788;7.318;2023-02-28T10:17:35;102190.78;;;3.76;41.01
43125;BME280;49182;50.788;7.318;2023-02-28T10:20:23;102182.09;;;3.75;41.07
43125;BME280;49182;50.788;7.318;2023-02-28T10:22:53;102185.41;;;3.80;42.57
43125;BME280;49182;50.788;7.318;2023-02-28T10:25:25;102188.22;;;3.99;40.16
43125;BME280;49182;50.788;7.318;2023-02-28T10:27:53;102124.00;;;3.69;41.17
43125;BME280;49182;50.788;7.318;2023-02-28T10:30:20;102174.78;;;4.10;41.62
43125;BME280;49182;50.788;7.318;2023-02-28T10:32:50;102135.50;;;3.88;41.07
43125;BME280;49182;50.788;7.318;2023-02-28T10:35:19;102180.53;;;4.19;41.22
43125;BME280;49182;50.788;7.318;2023-02-28T10:37:48;102169.78;;;4.27;40.69
43125;BME280;49182;50.788;7.318;2023-02-28T10:40:31;102171.19;;;4.37;41.30
43125;BME280;49182;50.788;7.318;2023-02-28T10:43:01;102164.69;;;4.47;40.67
43125;BME280;49182;50.788;7.318;2023-02-28T10:45:29;102176.56;;;4.56;39.25
43125;BME280;49182;50.788;7.318;2023-02-28T10:47:59;102167.88;;;4.55;39.77
43125;BME280;49182;50.788;7.318;2023-02-28T10:50:30;102163.41;;;4.57;40.64
43125;BME280;49182;50.788;7.318;2023-02-28T10:53:10;102131.78;;;4.41;39.84
43125;BME280;49182;50.788;7.318;2023-02-28T10:55:41;102148.19;;;4.45;38.50
43125;BME280;49182;50.788;7.318;2023-02-28T10:58:20;102140.75;;;4.34;39.41
43125;BME280;49182;50.788;7.318;2023-02-28T11:00:48;102163.28;;;4.62;39.23
43125;BME280;49182;50.788;7.318;2023-02-28T11:03:28;102113.91;;;4.53;38.15
43125;BME280;49182;50.788;7.318;2023-02-28T11:05:55;102157.38;;;4.78;39.20
43125;BME280;49182;50.788;7.318;2023-02-28T11:08:22;102166.81;;;4.82;38.06
43125;BME280;49182;50.788;7.318;2023-02-28T11:10:54;102162.28;;;4.87;37.24
43125;BME280;49182;50.788;7.318;2023-02-28T11:13:33;102153.63;;;4.85;37.40
43125;BME280;49182;50.788;7.318;2023-02-28T11:16:02;102163.34;;;4.82;38.51
43125;BME280;49182;50.788;7.318;2023-02-28T11:18:38;102122.31;;;4.61;39.14
43125;BME280;49182;50.788;7.318;2023-02-28T11:21:07;102154.84;;;4.99;38.66
43125;BME280;49182;50.788;7.318;2023-02-28T11:23:36;102147.06;;;4.97;37.53
43125;BME280;49182;50.788;7.318;2023-02-28T11:26:06;102157.13;;;5.06;38.10
43125;BME280;49182;50.788;7.318;2023-02-28T11:28:35;102148.22;;;5.12;39.15
43125;BME280;49182;50.788;7.318;2023-02-28T11:31:15;102142.53;;;5.22;39.48
43125;BME280;49182;50.788;7.318;2023-02-28T11:33:51;102133.63;;;5.26;38.52
43125;BME280;49182;50.788;7.318;2023-02-28T11:36:20;102118.06;;;5.23;38.13
43125;BME280;49182;50.788;7.318;2023-02-28T11:38:47;102130.91;;;5.29;37.81
43125;BME280;49182;50.788;7.318;2023-02-28T11:41:31;102097.38;;;5.17;37.14
43125;BME280;49182;50.788;7.318;2023-02-28T11:44:13;102150.28;;;5.46;37.38
43125;BME280;49182;50.788;7.318;2023-02-28T11:46:47;102147.72;;;5.44;37.48
43125;BME280;49182;50.788;7.318;2023-02-28T11:49:30;102143.47;;;5.42;37.83
43125;BME280;49182;50.788;7.318;2023-02-28T11:52:01;102144.34;;;5.42;37.48
43125;BME280;49182;50.788;7.318;2023-02-28T11:54:46;102151.75;;;5.53;36.03
43125;BME280;49182;50.788;7.318;2023-02-28T11:57:32;102134.31;;;5.52;36.70
43125;BME280;49182;50.788;7.318;2023-02-28T12:00:08;102138.91;;;5.67;37.25
43125;BME280;49182;50.788;7.318;2023-02-28T12:02:53;102149.91;;;5.75;36.31
43125;BME280;49182;50.788;7.318;2023-02-28T12:05:30;102146.56;;;5.72;36.25
43125;BME280;49182;50.788;7.318;2023-02-28T12:08:09;102145.66;;;5.73;37.25
43125;BME280;49182;50.788;7.318;2023-02-28T12:10:52;102140.94;;;5.81;36.69
43125;BME280;49182;50.788;7.318;2023-02-28T12:13:26;102107.38;;;5.68;37.22
43125;BME280;49182;50.788;7.318;2023-02-28T12:16:16;102115.44;;;5.84;38.50
43125;BME280;49182;50.788;7.318;2023-02-28T12:19:12;102130.53;;;5.99;37.50
43125;BME280;49182;50.788;7.318;2023-02-28T12:21:55;102125.81;;;6.07;37.76
43125;BME280;49182;50.788;7.318;2023-02-28T12:24:36;102130.56;;;6.18;37.37
43125;BME280;49182;50.788;7.318;2023-02-28T12:27:08;102105.47;;;6.13;37.17
43125;BME280;49182;50.788;7.318;2023-02-28T12:29:42;102103.63;;;6.15;37.49
43125;BME280;49182;50.788;7.318;2023-02-28T12:32:12;102114.41;;;6.27;35.85
43125;BME280;49182;50.788;7.318;2023-02-28T12:34:45;102111.28;;;6.19;38.05
43125;BME280;49182;50.788;7.318;2023-02-28T12:37:17;102108.31;;;6.27;36.46
43125;BME280;49182;50.788;7.318;2023-02-28T12:39:48;102093.22;;;6.13;37.47
43125;BME280;49182;50.788;7.318;2023-02-28T12:42:19;102104.91;;;6.25;37.27
43125;BME280;49182;50.788;7.318;2023-02-28T12:44:54;102075.06;;;6.08;37.44
43125;BME280;49182;50.788;7.318;2023-02-28T12:47:23;102111.34;;;6.36;38.32
43125;BME280;49182;50.788;7.318;2023-02-28T12:49:53;102109.13;;;6.47;37.33
43125;BME280;49182;50.788;7.318;2023-02-28T12:52:25;102101.66;;;6.57;36.86
43125;BME280;49182;50.788;7.318;2023-02-28T12:55:00;102102.63;;;6.55;35.96
43125;BME280;49182;50.788;7.318;2023-02-28T12:57:35;102096.00;;;6.47;36.02
43125;BME280;49182;50.788;7.318;2023-02-28T13:00:08;102093.72;;;6.40;35.74
43125;BME280;49182;50.788;7.318;2023-02-28T13:06:10;102077.19;;;6.57;35.88
43125;BME280;49182;50.788;7.318;2023-02-28T13:08:59;102077.25;;;6.55;36.36
43125;BME280;49182;50.788;7.318;2023-02-28T13:11:29;102070.75;;;6.45;36.00
43125;BME280;49182;50.788;7.318;2023-02-28T13:13:59;102069.91;;;6.44;36.54
43125;BME280;49182;50.788;7.318;2023-02-28T13:16:26;102075.28;;;6.60;35.87
43125;BME280;49182;50.788;7.318;2023-02-28T13:19:08;102073.41;;;6.62;36.02
43125;BME280;49182;50.788;7.318;2023-02-28T13:21:42;102075.00;;;6.66;36.83